首页
METAR-TAF:

METAR-TAF

机场 :

奥郎加巴德, 印度

纬度: 19-51-46N, 经度: 75-23-53E, 海拔: 582米

当前天气观测

该预报发布于24分钟前的14:30 UTC
风速6节,风向西转西南
温度 29°C
湿度 74%
气压 1009 hPa
能見度: 5000
散云层高于2000英尺
多云层高于2500英尺
多云层高于10000英尺
少量云层高于3000英尺, 积雨云.
雷暴, (小

METAR: VAAU 171430Z 25006KT 5000 -TS SCT020 BKN025 BKN100 FEW030CB 29/24 Q1009 TEMPO -SHRA

时间: 20:24 (14:54 UTC)

预报

该预报发布于3小时和54分钟前的11:00 UTC
预报有效从17日的 12点(UTC)到 17日的 21点(UTC)
风速7节,风向西
能見度: 4000
散云层高于2000英尺
散云层高于2500英尺
多云层高于9000英尺
成为
从 17日的 15点(UTC)到 17日的 17点(UTC)
能見度: 5000
散云层高于2000英尺
少量云层高于2500英尺, 塔状积云.
散云层高于10000英尺
霾, 轻雾,

TAF: VAAU 171100Z 1712/1721 26007KT 4000 HZ SCT020 SCT025 BKN090 BECMG 1715/1717 5000 HZ BR SCT020 FEW025TCU SCT100

超过4000个机场的气象观测和天气预报(METAR&TAF报告)。

可查询的气象台以黄色和红色小点在地图上表示。

将鼠标移到小点上方,可查看气象台名称。

然后点击查看天气观测和预报。

如需切换地图:点击带黑十字的绿色按钮放大地图;点击带横线的绿色按钮缩小地图;或者点击绿色箭头查看邻近地区的地图。


METAR-TAF: